Time;durP1;ratioP1;P1;durP2;ratioP2;P2;SDS_P1;SDS_P2;PMS_P1;PMS_P2;Temp;Humidity;BMP_temperature;BMP_pressure;BME280_temperature;BME280_humidity;BME280_pressure;Samples;Min_cycle;Max_cycle;Signal;HPM_P1;HPM_P2
2021/09/05 00:00:41;;;;;;;6.60;3.28;;;;;;;;;;5055698;28;20390;-51
2021/09/05 00:03:08;;;;;;;4.97;3.00;;;;;;;;;;5070263;28;20383;-55
2021/09/05 00:05:34;;;;;;;6.28;3.00;;;;;;;;;;5061522;28;20916;-56
2021/09/05 00:07:59;;;;;;;5.28;2.92;;;;;;;;;;5061764;28;20412;-57
2021/09/05 00:10:26;;;;;;;5.70;3.10;;;;;;;;;;5056627;28;20463;-56
2021/09/05 00:12:52;;;;;;;5.57;3.35;;;;;;;;;;5052723;28;20397;-52
2021/09/05 00:15:18;;;;;;;6.50;3.05;;;;;;;;;;5050601;28;20425;-57
2021/09/05 00:17:44;;;;;;;6.32;3.63;;;;;;;;;;5048763;28;20413;-57
2021/09/05 00:20:10;;;;;;;6.05;3.40;;;;;;;;;;5062346;28;20386;-53
2021/09/05 00:22:36;;;;;;;6.72;3.08;;;;;;;;;;5044026;28;21172;-54
2021/09/05 00:25:03;;;;;;;6.50;3.55;;;;;;;;;;5057725;28;20406;-54
2021/09/05 00:27:29;;;;;;;6.25;3.50;;;;;;;;;;5058982;28;20920;-56
2021/09/05 00:29:55;;;;;;;5.73;3.20;;;;;;;;;;5067407;28;20400;-53
2021/09/05 00:32:21;;;;;;;7.10;3.78;;;;;;;;;;5048613;28;20932;-52
2021/09/05 00:34:47;;;;;;;6.45;3.17;;;;;;;;;;5058683;28;20399;-52
2021/09/05 00:37:13;;;;;;;5.57;3.20;;;;;;;;;;5060441;28;20405;-53
2021/09/05 00:39:39;;;;;;;6.63;3.65;;;;;;;;;;5043865;28;20396;-53
2021/09/05 00:42:05;;;;;;;6.68;3.47;;;;;;;;;;5042053;28;20901;-52
2021/09/05 00:44:31;;;;;;;5.70;3.40;;;;;;;;;;5064282;28;20415;-53
2021/09/05 00:46:57;;;;;;;7.13;3.83;;;;;;;;;;5057899;28;20442;-54
2021/09/05 00:49:23;;;;;;;6.20;3.47;;;;;;;;;;5052733;28;20384;-52
2021/09/05 00:51:49;;;;;;;5.97;3.33;;;;;;;;;;5044846;28;20429;-56
2021/09/05 00:54:15;;;;;;;6.22;3.28;;;;;;;;;;5057688;28;20790;-57
2021/09/05 00:56:44;;;;;;;7.10;3.17;;;;;;;;;;5059732;28;20403;-52
2021/09/05 00:59:16;;;;;;;6.10;3.20;;;;;;;;;;5063558;28;20398;-57
2021/09/05 01:01:42;;;;;;;5.63;3.50;;;;;;;;;;5053241;28;20400;-53
2021/09/05 01:04:08;;;;;;;6.07;3.20;;;;;;;;;;5065735;28;20470;-53
2021/09/05 01:06:35;;;;;;;6.03;3.30;;;;;;;;;;5054011;28;20750;-56
2021/09/05 01:09:02;;;;;;;6.17;3.60;;;;;;;;;;5051863;28;20399;-55
2021/09/05 01:11:28;;;;;;;8.45;3.83;;;;;;;;;;5044773;28;20755;-56
2021/09/05 01:13:54;;;;;;;7.07;3.80;;;;;;;;;;5048725;28;20453;-52
2021/09/05 01:16:30;;;;;;;6.80;3.67;;;;;;;;;;5042294;28;20403;-53
2021/09/05 01:19:08;;;;;;;8.05;4.00;;;;;;;;;;5054724;28;20415;-57
2021/09/05 01:21:35;;;;;;;7.97;4.20;;;;;;;;;;5045135;28;20810;-52
2021/09/05 01:24:01;;;;;;;8.73;4.03;;;;;;;;;;5052956;28;20488;-54
2021/09/05 01:26:29;;;;;;;7.55;4.30;;;;;;;;;;5044142;28;20410;-56
2021/09/05 01:28:55;;;;;;;7.50;4.10;;;;;;;;;;5025884;28;20391;-55
2021/09/05 01:31:21;;;;;;;6.88;4.00;;;;;;;;;;5062526;28;20408;-53
2021/09/05 01:33:48;;;;;;;6.55;4.03;;;;;;;;;;5041384;28;20877;-52
2021/09/05 01:36:14;;;;;;;8.23;3.85;;;;;;;;;;5049002;28;20431;-54
2021/09/05 01:38:40;;;;;;;8.98;4.20;;;;;;;;;;5044839;28;20411;-55
2021/09/05 01:41:06;;;;;;;7.40;4.18;;;;;;;;;;5047061;28;20403;-51
2021/09/05 01:43:32;;;;;;;7.82;3.85;;;;;;;;;;5047779;28;20388;-55
2021/09/05 01:45:58;;;;;;;9.52;4.70;;;;;;;;;;5048158;28;20411;-55
2021/09/05 01:48:24;;;;;;;9.10;4.65;;;;;;;;;;5057152;28;20407;-52
2021/09/05 01:50:50;;;;;;;8.70;4.47;;;;;;;;;;5052339;28;20744;-56
2021/09/05 01:53:16;;;;;;;8.70;4.10;;;;;;;;;;5047813;28;20426;-52
2021/09/05 01:55:42;;;;;;;9.63;4.32;;;;;;;;;;5055241;28;20920;-51
2021/09/05 01:58:08;;;;;;;7.40;4.20;;;;;;;;;;5055307;28;20402;-51
2021/09/05 02:00:34;;;;;;;8.37;4.40;;;;;;;;;;5041738;28;20460;-54
2021/09/05 02:03:00;;;;;;;8.23;3.83;;;;;;;;;;5053892;28;20399;-55
2021/09/05 02:05:26;;;;;;;10.15;5.63;;;;;;;;;;5051223;28;20405;-54
2021/09/05 02:07:52;;;;;;;8.33;4.27;;;;;;;;;;5054000;28;20395;-54
2021/09/05 02:10:18;;;;;;;7.53;3.67;;;;;;;;;;5034539;28;20397;-54
2021/09/05 02:12:44;;;;;;;10.23;3.97;;;;;;;;;;5046711;28;20425;-56
2021/09/05 02:15:10;;;;;;;5.85;3.50;;;;;;;;;;5044422;28;20861;-52
2021/09/05 02:17:36;;;;;;;8.23;4.25;;;;;;;;;;5050535;28;20432;-53
2021/09/05 02:20:02;;;;;;;10.15;5.03;;;;;;;;;;5047782;28;20427;-52
2021/09/05 02:22:28;;;;;;;9.68;5.00;;;;;;;;;;5041819;28;20395;-51
2021/09/05 02:24:53;;;;;;;10.67;5.47;;;;;;;;;;5051215;28;20887;-57
2021/09/05 02:27:19;;;;;;;8.83;4.63;;;;;;;;;;5039408;28;20461;-54
2021/09/05 02:29:46;;;;;;;8.50;4.22;;;;;;;;;;5037913;28;20397;-54
2021/09/05 02:32:12;;;;;;;8.40;4.50;;;;;;;;;;5043870;28;20488;-55
2021/09/05 02:34:38;;;;;;;8.10;4.60;;;;;;;;;;5055369;28;20472;-55
2021/09/05 02:37:04;;;;;;;9.73;4.53;;;;;;;;;;5061592;28;20463;-51
2021/09/05 02:39:30;;;;;;;8.95;4.95;;;;;;;;;;5037749;28;20402;-54
2021/09/05 02:41:56;;;;;;;10.00;5.40;;;;;;;;;;5051418;28;20393;-51
2021/09/05 02:44:22;;;;;;;11.38;5.32;;;;;;;;;;5051269;28;20366;-52
2021/09/05 02:46:48;;;;;;;8.32;4.65;;;;;;;;;;5064674;28;20447;-52
2021/09/05 02:49:14;;;;;;;9.07;4.40;;;;;;;;;;5048473;28;20395;-54
2021/09/05 02:51:40;;;;;;;8.27;4.30;;;;;;;;;;5053424;28;20381;-53
2021/09/05 02:54:06;;;;;;;11.30;5.38;;;;;;;;;;5054328;28;20395;-54
2021/09/05 02:56:32;;;;;;;8.50;5.00;;;;;;;;;;5043144;28;20397;-54
2021/09/05 02:58:58;;;;;;;8.60;4.25;;;;;;;;;;5046891;28;20418;-51
2021/09/05 03:01:24;;;;;;;8.82;4.70;;;;;;;;;;5059709;28;20385;-53
2021/09/05 03:03:50;;;;;;;10.73;5.13;;;;;;;;;;5062383;28;20394;-56
2021/09/05 03:06:17;;;;;;;10.47;5.47;;;;;;;;;;5060225;28;20385;-53
2021/09/05 03:08:43;;;;;;;10.95;5.85;;;;;;;;;;5045653;28;20579;-52
2021/09/05 03:11:09;;;;;;;10.70;5.45;;;;;;;;;;5045620;28;20459;-54
2021/09/05 03:13:35;;;;;;;10.40;5.38;;;;;;;;;;5026585;28;20390;-55
2021/09/05 03:16:01;;;;;;;10.35;5.57;;;;;;;;;;5060066;28;20405;-55
2021/09/05 03:18:27;;;;;;;9.60;5.38;;;;;;;;;;5045732;28;20905;-56
2021/09/05 03:20:53;;;;;;;12.27;5.88;;;;;;;;;;5052243;28;20887;-52
2021/09/05 03:23:19;;;;;;;9.40;5.45;;;;;;;;;;5042889;28;20391;-54
2021/09/05 03:25:45;;;;;;;8.98;4.75;;;;;;;;;;5049140;28;20395;-53
2021/09/05 03:28:11;;;;;;;9.00;4.63;;;;;;;;;;5050234;28;21117;-52
2021/09/05 03:30:37;;;;;;;7.27;4.10;;;;;;;;;;5031063;28;20413;-53
2021/09/05 03:33:03;;;;;;;8.98;4.80;;;;;;;;;;5058116;28;20742;-54
2021/09/05 03:35:29;;;;;;;9.80;5.20;;;;;;;;;;5048192;28;20417;-56
2021/09/05 03:37:55;;;;;;;8.93;4.78;;;;;;;;;;5048585;28;20458;-52
2021/09/05 03:40:21;;;;;;;8.15;4.32;;;;;;;;;;5050235;28;20871;-53
2021/09/05 03:42:47;;;;;;;9.70;4.53;;;;;;;;;;5048792;28;20488;-51
2021/09/05 03:45:13;;;;;;;10.02;5.13;;;;;;;;;;5048033;28;20393;-54
2021/09/05 03:47:39;;;;;;;8.43;4.65;;;;;;;;;;5057161;28;20455;-53
2021/09/05 03:50:05;;;;;;;9.33;5.40;;;;;;;;;;5054796;28;20396;-54
2021/09/05 03:52:32;;;;;;;9.40;5.43;;;;;;;;;;5040202;28;20415;-55
2021/09/05 03:54:59;;;;;;;9.48;5.03;;;;;;;;;;5051602;28;20469;-55
2021/09/05 03:57:24;;;;;;;10.63;5.47;;;;;;;;;;5048499;28;20409;-52
2021/09/05 03:59:50;;;;;;;11.57;5.95;;;;;;;;;;5050258;28;20453;-55
2021/09/05 04:02:16;;;;;;;11.23;6.07;;;;;;;;;;5060561;28;20392;-54
2021/09/05 04:04:42;;;;;;;8.83;4.60;;;;;;;;;;5053603;28;20524;-51
2021/09/05 04:07:11;;;;;;;9.25;5.20;;;;;;;;;;5047753;28;20391;-52
2021/09/05 04:12:21;;;;;;;8.70;4.75;;;;;;;;;;5050230;28;20438;-52
2021/09/05 04:14:47;;;;;;;7.88;4.40;;;;;;;;;;5046077;28;20871;-52
2021/09/05 04:17:13;;;;;;;8.18;4.75;;;;;;;;;;5061419;28;20412;-52
2021/09/05 04:19:39;;;;;;;7.95;4.82;;;;;;;;;;5062646;28;20483;-55
2021/09/05 04:22:05;;;;;;;9.38;5.07;;;;;;;;;;5041700;28;20875;-55
2021/09/05 04:24:32;;;;;;;8.68;4.45;;;;;;;;;;5052863;28;21053;-51
2021/09/05 04:26:58;;;;;;;7.13;3.80;;;;;;;;;;5062561;28;20383;-54
2021/09/05 04:29:24;;;;;;;6.75;3.97;;;;;;;;;;5053144;28;20480;-55
2021/09/05 04:31:50;;;;;;;6.97;4.00;;;;;;;;;;5052707;28;20867;-55
2021/09/05 04:34:16;;;;;;;8.47;4.80;;;;;;;;;;5020562;28;20771;-51
2021/09/05 04:36:41;;;;;;;7.40;4.35;;;;;;;;;;5062199;28;20444;-56
2021/09/05 04:39:07;;;;;;;7.65;4.47;;;;;;;;;;5057226;28;20426;-55
2021/09/05 04:41:34;;;;;;;7.30;3.88;;;;;;;;;;5055815;28;20878;-55
2021/09/05 04:44:00;;;;;;;8.40;4.40;;;;;;;;;;5049100;28;20397;-52
2021/09/05 04:46:26;;;;;;;7.60;4.03;;;;;;;;;;5052537;28;20391;-51
2021/09/05 04:48:52;;;;;;;9.15;5.10;;;;;;;;;;5065178;28;20368;-56
2021/09/05 04:51:18;;;;;;;8.20;4.60;;;;;;;;;;5043126;28;20431;-53
2021/09/05 04:53:44;;;;;;;11.55;4.93;;;;;;;;;;5049524;28;20492;-54
2021/09/05 04:56:11;;;;;;;8.38;4.60;;;;;;;;;;5046926;28;20383;-53
2021/09/05 04:58:37;;;;;;;8.48;5.22;;;;;;;;;;5052446;28;20872;-55
2021/09/05 05:01:03;;;;;;;9.63;5.43;;;;;;;;;;5054070;28;20413;-51
2021/09/05 05:03:29;;;;;;;10.70;5.13;;;;;;;;;;5053367;28;20403;-53
2021/09/05 05:05:55;;;;;;;11.63;4.90;;;;;;;;;;5054295;28;20901;-52
2021/09/05 05:08:21;;;;;;;11.82;5.97;;;;;;;;;;5063223;28;20812;-52
2021/09/05 05:10:47;;;;;;;10.20;5.38;;;;;;;;;;5047636;28;20393;-53
2021/09/05 05:13:13;;;;;;;8.85;4.93;;;;;;;;;;5035542;28;20817;-52
2021/09/05 05:15:39;;;;;;;10.07;5.00;;;;;;;;;;5047400;28;20461;-57
2021/09/05 05:18:05;;;;;;;9.30;4.90;;;;;;;;;;5065248;28;20909;-52
2021/09/05 05:20:30;;;;;;;8.20;4.97;;;;;;;;;;5064521;28;20878;-53
2021/09/05 05:22:56;;;;;;;8.93;4.95;;;;;;;;;;5053998;28;20399;-55
2021/09/05 05:25:23;;;;;;;7.43;4.27;;;;;;;;;;5049752;28;20389;-54
2021/09/05 05:27:49;;;;;;;10.13;4.90;;;;;;;;;;5061460;28;20414;-56
2021/09/05 05:30:15;;;;;;;10.73;5.72;;;;;;;;;;5056706;28;20405;-54
2021/09/05 05:32:41;;;;;;;9.70;5.60;;;;;;;;;;5051252;28;20397;-56
2021/09/05 05:35:07;;;;;;;11.68;5.28;;;;;;;;;;5051373;28;20453;-56
2021/09/05 05:37:33;;;;;;;12.27;6.17;;;;;;;;;;5057052;28;20439;-54
2021/09/05 05:40:00;;;;;;;9.90;5.15;;;;;;;;;;5045588;28;20523;-52
2021/09/05 05:42:26;;;;;;;11.23;6.10;;;;;;;;;;5049276;28;20460;-51
2021/09/05 05:44:52;;;;;;;12.07;6.03;;;;;;;;;;5042388;28;20805;-52
2021/09/05 05:47:18;;;;;;;13.10;6.45;;;;;;;;;;5056007;28;20403;-55
2021/09/05 05:49:46;;;;;;;12.88;6.05;;;;;;;;;;5055735;28;20502;-52
2021/09/05 05:52:13;;;;;;;11.00;5.93;;;;;;;;;;5039654;28;20402;-54
2021/09/05 05:54:39;;;;;;;9.60;5.38;;;;;;;;;;5041902;28;20891;-54
2021/09/05 05:57:05;;;;;;;13.93;7.00;;;;;;;;;;5057880;28;20500;-56
2021/09/05 05:59:31;;;;;;;14.43;6.78;;;;;;;;;;5052788;28;20587;-55
2021/09/05 06:01:59;;;;;;;10.18;5.50;;;;;;;;;;5046976;28;20854;-55
2021/09/05 06:04:25;;;;;;;13.25;7.65;;;;;;;;;;5044340;28;20429;-57
2021/09/05 06:06:52;;;;;;;15.55;6.45;;;;;;;;;;5050100;28;20861;-56
2021/09/05 06:09:19;;;;;;;11.40;6.20;;;;;;;;;;5048411;28;20403;-53
2021/09/05 06:11:45;;;;;;;12.93;7.10;;;;;;;;;;5043740;28;20923;-53
2021/09/05 06:14:11;;;;;;;12.30;6.40;;;;;;;;;;5042097;28;20655;-54
2021/09/05 06:16:37;;;;;;;15.00;7.55;;;;;;;;;;5049729;28;20406;-56
2021/09/05 06:19:03;;;;;;;15.15;7.85;;;;;;;;;;5038708;28;20494;-54
2021/09/05 06:21:29;;;;;;;15.60;7.03;;;;;;;;;;5039688;28;20393;-54
2021/09/05 06:23:55;;;;;;;19.27;9.40;;;;;;;;;;5045651;28;20428;-52
2021/09/05 06:26:21;;;;;;;14.98;7.68;;;;;;;;;;5042853;28;20393;-55
2021/09/05 06:28:47;;;;;;;19.60;9.82;;;;;;;;;;5048588;28;20420;-54
2021/09/05 06:31:13;;;;;;;19.77;9.23;;;;;;;;;;5042034;28;20391;-55
2021/09/05 06:33:39;;;;;;;22.10;9.43;;;;;;;;;;5046520;28;20426;-52
2021/09/05 06:36:05;;;;;;;21.55;9.90;;;;;;;;;;5050736;28;20397;-53
2021/09/05 06:38:32;;;;;;;20.98;9.50;;;;;;;;;;5048954;28;20968;-52
2021/09/05 06:40:57;;;;;;;23.42;9.85;;;;;;;;;;5053062;28;20476;-51
2021/09/05 06:43:23;;;;;;;15.45;8.05;;;;;;;;;;5040393;28;20591;-52
2021/09/05 06:45:49;;;;;;;18.13;9.27;;;;;;;;;;5049762;28;20401;-53
2021/09/05 06:48:15;;;;;;;19.45;7.93;;;;;;;;;;5057724;28;20867;-54
2021/09/05 06:50:41;;;;;;;15.77;8.50;;;;;;;;;;5053295;28;20426;-54
2021/09/05 06:53:07;;;;;;;18.15;8.93;;;;;;;;;;5046326;28;20414;-56
2021/09/05 06:55:34;;;;;;;17.95;8.77;;;;;;;;;;5056456;28;20479;-56
2021/09/05 06:58:00;;;;;;;15.57;7.50;;;;;;;;;;5064514;28;20419;-52
2021/09/05 07:00:25;;;;;;;16.95;8.55;;;;;;;;;;5040448;28;20397;-55
2021/09/05 07:02:51;;;;;;;16.60;8.30;;;;;;;;;;5051227;28;20517;-54
2021/09/05 07:05:17;;;;;;;15.80;8.30;;;;;;;;;;5073016;28;20429;-55
2021/09/05 07:07:43;;;;;;;15.75;7.78;;;;;;;;;;5071021;28;20398;-54
2021/09/05 07:10:10;;;;;;;16.88;8.20;;;;;;;;;;5036056;28;20462;-53
2021/09/05 07:12:35;;;;;;;15.85;8.27;;;;;;;;;;5038840;28;20488;-51
2021/09/05 07:15:01;;;;;;;16.85;8.75;;;;;;;;;;5047970;28;20405;-53
2021/09/05 07:17:27;;;;;;;15.47;7.50;;;;;;;;;;5056036;28;20469;-55
2021/09/05 07:19:54;;;;;;;16.60;7.78;;;;;;;;;;5056924;28;21008;-54
2021/09/05 07:22:20;;;;;;;15.85;8.18;;;;;;;;;;5041073;28;20388;-52
2021/09/05 07:24:46;;;;;;;14.30;7.22;;;;;;;;;;5043177;28;20830;-54
2021/09/05 07:27:12;;;;;;;13.43;7.00;;;;;;;;;;5041427;28;20397;-55
2021/09/05 07:29:39;;;;;;;15.45;7.85;;;;;;;;;;5045501;28;20389;-55
2021/09/05 07:32:05;;;;;;;13.07;7.18;;;;;;;;;;5052211;28;20474;-54
2021/09/05 07:34:31;;;;;;;13.18;7.22;;;;;;;;;;5053369;28;20400;-52
2021/09/05 07:36:57;;;;;;;16.08;8.13;;;;;;;;;;5032221;28;20405;-51
2021/09/05 07:39:23;;;;;;;19.10;8.52;;;;;;;;;;5037801;28;20418;-53
2021/09/05 07:41:49;;;;;;;15.38;8.00;;;;;;;;;;5041514;28;20488;-54
2021/09/05 07:44:15;;;;;;;13.93;7.60;;;;;;;;;;5041533;28;20395;-55
2021/09/05 07:46:41;;;;;;;12.98;6.38;;;;;;;;;;5054208;28;20393;-53
2021/09/05 07:49:07;;;;;;;16.98;8.05;;;;;;;;;;5042314;28;20434;-52
2021/09/05 07:51:33;;;;;;;10.95;6.60;;;;;;;;;;5046871;28;20441;-51
2021/09/05 07:53:59;;;;;;;15.55;7.53;;;;;;;;;;5046566;28;20713;-55
2021/09/05 07:56:25;;;;;;;13.20;7.13;;;;;;;;;;5050072;28;20402;-52
2021/09/05 07:58:51;;;;;;;13.30;7.57;;;;;;;;;;5045242;28;20717;-53
2021/09/05 08:01:17;;;;;;;13.43;7.05;;;;;;;;;;5037377;28;20397;-54
2021/09/05 08:03:43;;;;;;;11.63;6.28;;;;;;;;;;5041030;28;20435;-53
2021/09/05 08:06:09;;;;;;;12.20;6.63;;;;;;;;;;5043011;28;20405;-53
2021/09/05 08:08:36;;;;;;;12.90;6.65;;;;;;;;;;5044782;28;20438;-56
2021/09/05 08:11:05;;;;;;;14.13;7.32;;;;;;;;;;5048118;28;20488;-54
2021/09/05 08:13:31;;;;;;;12.63;6.88;;;;;;;;;;5041032;28;20525;-54
2021/09/05 08:16:00;;;;;;;13.33;6.70;;;;;;;;;;5043934;28;20393;-52
2021/09/05 08:18:27;;;;;;;12.20;6.50;;;;;;;;;;5050237;28;20916;-50
2021/09/05 08:20:53;;;;;;;11.70;6.30;;;;;;;;;;5046243;28;20879;-54
2021/09/05 08:23:19;;;;;;;12.70;6.25;;;;;;;;;;5042292;28;20394;-53
2021/09/05 08:25:45;;;;;;;12.23;6.38;;;;;;;;;;5038731;28;20416;-53
2021/09/05 08:28:12;;;;;;;10.77;6.10;;;;;;;;;;5040670;28;20405;-51
2021/09/05 08:30:38;;;;;;;12.52;6.75;;;;;;;;;;5051098;28;20389;-52
2021/09/05 08:33:04;;;;;;;10.73;5.97;;;;;;;;;;5048168;28;20399;-55
2021/09/05 08:35:30;;;;;;;11.55;5.47;;;;;;;;;;5042730;28;20412;-56
2021/09/05 08:37:56;;;;;;;12.00;5.73;;;;;;;;;;5037906;28;20442;-53
2021/09/05 08:40:23;;;;;;;11.00;5.78;;;;;;;;;;5045132;28;20431;-51
2021/09/05 08:42:49;;;;;;;12.45;5.90;;;;;;;;;;5038959;28;20481;-55
2021/09/05 08:45:15;;;;;;;10.05;5.28;;;;;;;;;;5050884;28;20390;-55
2021/09/05 08:47:42;;;;;;;9.38;4.88;;;;;;;;;;5048344;28;20391;-54
2021/09/05 08:50:08;;;;;;;10.52;5.45;;;;;;;;;;5055314;28;20416;-53
2021/09/05 08:52:35;;;;;;;10.48;5.55;;;;;;;;;;5035384;28;20422;-53
2021/09/05 08:55:01;;;;;;;9.35;5.30;;;;;;;;;;5035965;28;20399;-52
2021/09/05 08:57:27;;;;;;;10.73;5.93;;;;;;;;;;5037187;28;20545;-54
2021/09/05 08:59:53;;;;;;;9.73;4.90;;;;;;;;;;5043680;28;20924;-53
2021/09/05 09:02:19;;;;;;;11.48;5.25;;;;;;;;;;5047508;28;20437;-56
2021/09/05 09:04:49;;;;;;;10.40;5.18;;;;;;;;;;5047075;28;20395;-52
2021/09/05 09:07:15;;;;;;;10.03;5.20;;;;;;;;;;5041729;28;20871;-55
2021/09/05 09:09:58;;;;;;;9.05;4.97;;;;;;;;;;5046431;28;20391;-50
2021/09/05 09:12:48;;;;;;;9.68;4.90;;;;;;;;;;5050495;28;20772;-53
2021/09/05 09:15:18;;;;;;;8.45;4.47;;;;;;;;;;5056452;28;20750;-55
2021/09/05 09:17:45;;;;;;;10.05;5.10;;;;;;;;;;5048649;28;20419;-54
2021/09/05 09:20:11;;;;;;;7.53;4.75;;;;;;;;;;5046390;28;20973;-52
2021/09/05 09:22:37;;;;;;;9.95;5.25;;;;;;;;;;5062076;28;20831;-52
2021/09/05 09:25:03;;;;;;;9.57;5.07;;;;;;;;;;5050271;28;20402;-54
2021/09/05 09:27:29;;;;;;;8.60;4.30;;;;;;;;;;5058594;28;20440;-55
2021/09/05 09:29:56;;;;;;;9.15;4.93;;;;;;;;;;5061920;28;20401;-53
2021/09/05 09:32:23;;;;;;;9.27;4.50;;;;;;;;;;5054339;28;20403;-52
2021/09/05 09:34:50;;;;;;;8.40;4.60;;;;;;;;;;5046546;28;20426;-57
2021/09/05 09:37:17;;;;;;;8.93;4.63;;;;;;;;;;5052010;28;20407;-53
2021/09/05 09:39:49;;;;;;;8.43;4.35;;;;;;;;;;5049083;28;20815;-53
2021/09/05 09:42:33;;;;;;;9.05;4.45;;;;;;;;;;5044366;28;20397;-53
2021/09/05 09:45:00;;;;;;;7.63;4.27;;;;;;;;;;5042263;28;20392;-53
2021/09/05 09:47:36;;;;;;;8.45;4.20;;;;;;;;;;5047616;28;20854;-52
2021/09/05 09:50:02;;;;;;;9.07;5.10;;;;;;;;;;5051838;28;20473;-54
2021/09/05 09:52:29;;;;;;;8.50;4.50;;;;;;;;;;5048824;28;20560;-53
2021/09/05 09:54:55;;;;;;;10.70;4.70;;;;;;;;;;5039736;28;20921;-54
2021/09/05 09:57:21;;;;;;;8.23;3.80;;;;;;;;;;5044714;28;20393;-55
2021/09/05 09:59:47;;;;;;;8.48;4.60;;;;;;;;;;5051008;28;20880;-54
2021/09/05 10:02:16;;;;;;;9.93;4.65;;;;;;;;;;5047982;28;20472;-54
2021/09/05 10:04:43;;;;;;;8.77;4.13;;;;;;;;;;5050308;28;20716;-56
2021/09/05 10:07:09;;;;;;;7.43;4.15;;;;;;;;;;5038420;28;20480;-52
2021/09/05 10:09:36;;;;;;;7.32;3.92;;;;;;;;;;5071253;28;20392;-53
2021/09/05 10:12:03;;;;;;;9.23;4.65;;;;;;;;;;5042160;28;21128;-55
2021/09/05 10:14:29;;;;;;;9.68;4.53;;;;;;;;;;5045057;28;20386;-54
2021/09/05 10:16:55;;;;;;;7.03;3.50;;;;;;;;;;5051057;28;20887;-51
2021/09/05 10:19:22;;;;;;;9.32;4.88;;;;;;;;;;5070023;28;20999;-52
2021/09/05 10:21:48;;;;;;;8.35;4.20;;;;;;;;;;5053465;28;20969;-51
2021/09/05 10:24:16;;;;;;;7.53;4.00;;;;;;;;;;5041630;28;20452;-55
2021/09/05 10:27:00;;;;;;;11.05;5.28;;;;;;;;;;5059961;28;20900;-51
2021/09/05 10:29:26;;;;;;;8.00;4.20;;;;;;;;;;5053887;28;20931;-53
2021/09/05 10:31:52;;;;;;;9.57;4.50;;;;;;;;;;5062055;28;20403;-53
2021/09/05 10:34:31;;;;;;;9.87;5.20;;;;;;;;;;5051394;28;20381;-56
2021/09/05 10:37:05;;;;;;;8.35;4.38;;;;;;;;;;5059053;28;20481;-55
2021/09/05 10:39:31;;;;;;;11.63;5.40;;;;;;;;;;5053128;28;20542;-55
2021/09/05 10:41:57;;;;;;;10.13;4.50;;;;;;;;;;5068722;28;20848;-54
2021/09/05 10:44:23;;;;;;;8.98;4.20;;;;;;;;;;5048968;28;20390;-56
2021/09/05 10:46:51;;;;;;;10.38;4.97;;;;;;;;;;5066537;28;20371;-55
2021/09/05 10:49:17;;;;;;;12.23;5.30;;;;;;;;;;5040889;28;20874;-55
2021/09/05 10:51:50;;;;;;;11.25;5.70;;;;;;;;;;5052800;28;20883;-56
2021/09/05 10:54:23;;;;;;;10.73;5.50;;;;;;;;;;5049792;28;20406;-55
2021/09/05 10:56:50;;;;;;;10.80;5.55;;;;;;;;;;5050241;28;20395;-54
2021/09/05 10:59:19;;;;;;;9.60;5.00;;;;;;;;;;5054710;28;20414;-52
2021/09/05 11:01:48;;;;;;;10.25;5.10;;;;;;;;;;5049429;28;20424;-54
2021/09/05 11:04:14;;;;;;;11.37;5.40;;;;;;;;;;5047896;28;20470;-55
2021/09/05 11:06:44;;;;;;;7.60;4.53;;;;;;;;;;5047605;28;20409;-52
2021/09/05 11:09:23;;;;;;;10.45;4.95;;;;;;;;;;5046297;28;20408;-52
2021/09/05 11:11:55;;;;;;;10.75;5.72;;;;;;;;;;5045918;28;21005;-55
2021/09/05 11:14:45;;;;;;;8.25;4.90;;;;;;;;;;5044551;28;20397;-55
2021/09/05 11:17:12;;;;;;;11.65;6.35;;;;;;;;;;5054636;28;20438;-56
2021/09/05 11:19:46;;;;;;;10.30;5.45;;;;;;;;;;5060739;28;20504;-50
2021/09/05 11:22:12;;;;;;;11.32;5.53;;;;;;;;;;5064897;28;20403;-53
2021/09/05 11:24:39;;;;;;;12.93;5.93;;;;;;;;;;5047716;28;20403;-53
2021/09/05 11:27:06;;;;;;;12.35;5.55;;;;;;;;;;5038797;28;20406;-54
2021/09/05 11:29:32;;;;;;;11.23;5.50;;;;;;;;;;5045998;28;20482;-57
2021/09/05 11:32:02;;;;;;;8.40;4.73;;;;;;;;;;5048458;28;20472;-56
2021/09/05 11:34:28;;;;;;;7.82;4.38;;;;;;;;;;5060611;28;20400;-54
2021/09/05 11:36:54;;;;;;;8.27;5.05;;;;;;;;;;5050088;28;20996;-56
2021/09/05 11:39:20;;;;;;;7.82;4.50;;;;;;;;;;5042321;28;20415;-55
2021/09/05 11:41:52;;;;;;;8.68;4.47;;;;;;;;;;5050006;28;20393;-54
2021/09/05 11:44:47;;;;;;;8.10;5.05;;;;;;;;;;5053552;28;20430;-55
2021/09/05 11:47:16;;;;;;;9.32;4.68;;;;;;;;;;5022675;28;20452;-52
2021/09/05 11:49:50;;;;;;;8.55;4.97;;;;;;;;;;5060974;28;20979;-54
2021/09/05 11:52:19;;;;;;;7.63;4.65;;;;;;;;;;5063387;28;20491;-53
2021/09/05 11:54:48;;;;;;;10.57;5.20;;;;;;;;;;5053059;28;20419;-55
2021/09/05 11:57:15;;;;;;;7.95;4.28;;;;;;;;;;5053189;28;20886;-54
2021/09/05 11:59:41;;;;;;;7.75;4.43;;;;;;;;;;5048982;28;20474;-53
2021/09/05 12:02:07;;;;;;;9.60;4.57;;;;;;;;;;5042957;28;20801;-51
2021/09/05 12:04:35;;;;;;;9.13;4.80;;;;;;;;;;5051838;28;20871;-54
2021/09/05 12:07:01;;;;;;;8.82;4.80;;;;;;;;;;5042387;28;20381;-55
2021/09/05 12:09:28;;;;;;;11.63;5.47;;;;;;;;;;5042549;28;20405;-53
2021/09/05 12:11:58;;;;;;;8.98;5.18;;;;;;;;;;5045603;28;20490;-53
2021/09/05 12:14:43;;;;;;;9.55;5.07;;;;;;;;;;5062446;28;20733;-52
2021/09/05 12:17:22;;;;;;;8.95;4.43;;;;;;;;;;5061861;28;20401;-51
2021/09/05 12:19:58;;;;;;;11.15;5.00;;;;;;;;;;5049744;28;20913;-52
2021/09/05 12:22:24;;;;;;;9.20;4.90;;;;;;;;;;5047110;28;20385;-52
2021/09/05 12:24:54;;;;;;;9.33;4.60;;;;;;;;;;5051357;28;20389;-52
2021/09/05 12:27:20;;;;;;;8.60;4.72;;;;;;;;;;5048008;28;20386;-50
2021/09/05 12:29:46;;;;;;;10.88;4.78;;;;;;;;;;5051325;28;20400;-52
2021/09/05 12:32:14;;;;;;;8.48;4.07;;;;;;;;;;5051332;28;20423;-52
2021/09/05 12:34:46;;;;;;;8.00;4.57;;;;;;;;;;5044700;28;20490;-53
2021/09/05 12:37:13;;;;;;;7.35;4.40;;;;;;;;;;5035615;28;20860;-54
2021/09/05 12:39:40;;;;;;;7.88;4.30;;;;;;;;;;5036939;28;20453;-55
2021/09/05 12:42:06;;;;;;;9.00;4.50;;;;;;;;;;5040734;28;20391;-51
2021/09/05 12:44:39;;;;;;;7.15;3.88;;;;;;;;;;5046155;28;20728;-56
2021/09/05 12:47:05;;;;;;;6.97;3.90;;;;;;;;;;5040169;28;20410;-54
2021/09/05 12:49:38;;;;;;;8.00;4.47;;;;;;;;;;5038330;28;20407;-52
2021/09/05 12:52:04;;;;;;;7.15;3.85;;;;;;;;;;5056560;28;20408;-57
2021/09/05 12:54:30;;;;;;;6.80;3.70;;;;;;;;;;5042610;28;21143;-54
2021/09/05 12:56:56;;;;;;;6.03;3.67;;;;;;;;;;5049632;28;20432;-56
2021/09/05 12:59:22;;;;;;;6.93;3.88;;;;;;;;;;5047302;28;20402;-56
2021/09/05 13:01:52;;;;;;;6.93;3.90;;;;;;;;;;5047677;28;20911;-54
2021/09/05 13:04:18;;;;;;;6.95;3.97;;;;;;;;;;5047134;28;20395;-54
2021/09/05 13:06:44;;;;;;;7.70;4.15;;;;;;;;;;5046826;28;20462;-55
2021/09/05 13:09:10;;;;;;;7.63;3.73;;;;;;;;;;5046576;28;20771;-52
2021/09/05 13:11:37;;;;;;;7.13;3.90;;;;;;;;;;5047970;28;20454;-56
2021/09/05 13:14:03;;;;;;;6.95;3.90;;;;;;;;;;5056140;28;20393;-53
2021/09/05 13:16:29;;;;;;;6.55;3.85;;;;;;;;;;5043147;28;20408;-57
2021/09/05 13:18:55;;;;;;;8.63;4.00;;;;;;;;;;5055376;28;20414;-57
2021/09/05 13:21:22;;;;;;;7.05;3.78;;;;;;;;;;5053841;28;20448;-53
2021/09/05 13:23:49;;;;;;;7.47;4.45;;;;;;;;;;5042211;28;20393;-57
2021/09/05 13:26:16;;;;;;;5.68;3.72;;;;;;;;;;5041693;28;20580;-56
2021/09/05 13:28:42;;;;;;;8.27;4.10;;;;;;;;;;5042082;28;20469;-52
2021/09/05 13:31:11;;;;;;;8.30;4.25;;;;;;;;;;5042882;28;20405;-56
2021/09/05 13:33:37;;;;;;;7.68;4.13;;;;;;;;;;5036251;28;20478;-54
2021/09/05 13:36:03;;;;;;;6.07;4.07;;;;;;;;;;5036175;28;21119;-53
2021/09/05 13:38:29;;;;;;;8.73;4.53;;;;;;;;;;5022097;28;20426;-57
2021/09/05 13:40:55;;;;;;;7.45;4.10;;;;;;;;;;5041170;28;20397;-54
2021/09/05 13:43:21;;;;;;;6.75;4.25;;;;;;;;;;5058024;28;20926;-52
2021/09/05 13:45:47;;;;;;;7.47;4.35;;;;;;;;;;5044263;28;20451;-54
2021/09/05 13:48:13;;;;;;;8.02;4.40;;;;;;;;;;5043134;28;20402;-52
2021/09/05 13:50:40;;;;;;;8.65;4.68;;;;;;;;;;5043710;28;20499;-56
2021/09/05 13:53:06;;;;;;;9.80;5.15;;;;;;;;;;5046219;28;20746;-55
2021/09/05 13:55:31;;;;;;;8.05;4.18;;;;;;;;;;5042389;28;20412;-50
2021/09/05 13:57:57;;;;;;;7.78;4.05;;;;;;;;;;5050777;28;20409;-55
2021/09/05 14:00:23;;;;;;;8.00;4.40;;;;;;;;;;5054546;28;20867;-57
2021/09/05 14:02:50;;;;;;;7.57;4.35;;;;;;;;;;5063782;28;20794;-57
2021/09/05 14:05:17;;;;;;;8.27;4.53;;;;;;;;;;5053799;28;20391;-57
2021/09/05 14:07:43;;;;;;;8.88;4.97;;;;;;;;;;5050337;28;20407;-56
2021/09/05 14:10:09;;;;;;;8.05;4.45;;;;;;;;;;5051540;28;20380;-53
2021/09/05 14:12:35;;;;;;;8.18;4.70;;;;;;;;;;5047248;28;20414;-56
2021/09/05 14:15:01;;;;;;;8.13;4.20;;;;;;;;;;5051318;28;20394;-57
2021/09/05 14:17:27;;;;;;;7.40;3.90;;;;;;;;;;5049515;28;20403;-54
2021/09/05 14:19:53;;;;;;;7.43;4.35;;;;;;;;;;5044587;28;20399;-52
2021/09/05 14:22:19;;;;;;;7.43;4.20;;;;;;;;;;5049544;28;20434;-57
2021/09/05 14:24:45;;;;;;;8.00;4.13;;;;;;;;;;5036570;28;20460;-56
2021/09/05 14:27:15;;;;;;;8.10;4.03;;;;;;;;;;5043861;28;20399;-55
2021/09/05 14:35:24;;;;;;;7.18;4.07;;;;;;;;;;5012960;28;20434;-53
2021/09/05 14:38:11;;;;;;;7.70;4.20;;;;;;;;;;5045908;28;20414;-53
2021/09/05 14:49:02;;;;;;;6.67;3.97;;;;;;;;;;5042315;28;20385;-57
2021/09/05 14:54:22;;;;;;;7.68;4.53;;;;;;;;;;5038450;28;20413;-56
2021/09/05 14:56:48;;;;;;;8.23;4.23;;;;;;;;;;5055040;28;20400;-57